Time;durP1;ratioP1;P1;durP2;ratioP2;P2;SDS_P1;SDS_P2;PMS_P1;PMS_P2;Temp;Humidity;BMP_temperature;BMP_pressure;BME280_temperature;BME280_humidity;BME280_pressure;Samples;Min_cycle;Max_cycle;Signal;HPM_P1;HPM_P2
2023/02/21 02:13:50;;;;;;;;;;;6.40;99.90;7.00;100138.00;;;;341661;28;82651;-95
2023/02/21 02:14:39;;;;;;;;;;;6.40;99.90;6.90;100142.00;;;;339850;28;90184;-95
2023/02/21 02:15:17;;;;;;;;;;;6.40;99.90;6.80;100137.00;;;;340298;28;83367;-94
2023/02/21 02:15:59;;;;;;;;;;;6.40;99.90;6.90;100144.00;;;;338697;28;90593;-95
2023/02/21 02:16:30;;;;;;;;;;;6.30;99.90;6.80;100139.00;;;;339276;28;82578;-95
2023/02/21 02:16:48;;;;;;;;;;;6.30;99.90;6.70;100146.00;;;;338835;28;90924;-95
2023/02/21 02:17:20;;;;;;;;;;;6.30;99.90;6.80;100136.00;;;;337854;28;82580;-95
2023/02/21 02:17:53;;;;;;;;;;;6.30;99.90;6.60;100133.00;;;;334707;29;92778;-95
2023/02/21 02:18:33;;;;;;;;;;;6.30;99.90;6.60;100137.00;;;;335290;29;82652;-95
2023/02/21 02:18:51;;;;;;;;;;;6.30;99.90;6.70;100135.00;;;;332134;29;90816;-95
2023/02/21 02:19:39;;;;;;;;;;;6.20;99.90;6.60;100137.00;;;;335352;29;83346;-95
2023/02/21 02:20:16;;;;;;;;;;;6.30;99.90;6.70;100144.00;;;;334926;29;90080;-95
2023/02/21 02:20:53;;;;;;;;;;;6.20;99.90;6.60;100134.00;;;;336420;28;82755;-95
2023/02/21 02:21:05;;;;;;;;;;;6.20;99.90;6.70;100135.00;;;;333736;29;90332;-95
2023/02/21 02:21:32;;;;;;;;;;;6.20;99.90;6.70;100132.00;;;;335360;29;83490;-94
2023/02/21 02:22:08;;;;;;;;;;;6.20;99.90;6.60;100135.00;;;;334909;29;92050;-95
2023/02/21 02:22:50;;;;;;;;;;;6.20;99.90;6.80;100139.00;;;;335298;29;82386;-95
2023/02/21 02:23:41;;;;;;;;;;;6.10;99.90;6.70;100130.00;;;;332537;29;89010;-94
2023/02/21 02:24:30;;;;;;;;;;;6.10;99.90;6.70;100134.00;;;;335229;29;82674;-96
2023/02/21 02:25:09;;;;;;;;;;;6.10;99.90;6.60;100129.00;;;;331958;29;90066;-93
2023/02/21 02:25:46;;;;;;;;;;;6.10;99.90;6.70;100128.00;;;;332700;29;82736;-95
2023/02/21 02:26:48;;;;;;;;;;;6.10;99.90;6.70;100136.00;;;;332169;29;89673;-95
2023/02/21 02:27:50;;;;;;;;;;;6.10;99.90;6.60;100137.00;;;;334914;29;82570;-96
2023/02/21 02:28:36;;;;;;;;;;;6.10;99.90;6.50;100137.00;;;;333546;29;88224;-95
2023/02/21 02:29:14;;;;;;;;;;;6.10;99.90;6.50;100130.00;;;;333852;29;82880;-95
2023/02/21 02:30:06;;;;;;;;;;;6.10;99.90;6.40;100136.00;;;;334731;29;89247;-96
2023/02/21 02:31:10;;;;;;;;;;;6.10;99.90;6.60;100130.00;;;;333854;29;83510;-95
2023/02/21 02:31:41;;;;;;;;;;;6.00;99.90;6.50;100128.00;;;;333346;29;90383;-95
2023/02/21 02:32:10;;;;;;;;;;;6.00;99.90;6.50;100122.00;;;;333976;29;83581;-95
2023/02/21 02:32:52;;;;;;;;;;;6.00;99.90;6.60;100124.00;;;;333523;29;88208;-94
2023/02/21 02:33:21;;;;;;;;;;;6.00;99.90;6.60;100129.00;;;;334292;29;82723;-96
2023/02/21 02:34:02;;;;;;;;;;;6.00;99.90;6.60;100116.00;;;;334724;29;90558;-95
2023/02/21 02:34:33;;;;;;;;;;;6.00;99.90;6.50;100122.00;;;;332992;29;83517;-96
2023/02/21 02:35:02;;;;;;;;;;;6.00;99.90;6.50;100129.00;;;;333553;29;88212;-94
2023/02/21 02:35:31;;;;;;;;;;;6.00;99.90;6.50;100119.00;;;;332538;29;83662;-94
2023/02/21 02:36:14;;;;;;;;;;;6.00;99.90;6.60;100124.00;;;;335067;29;90125;-95
2023/02/21 02:36:41;;;;;;;;;;;6.00;99.90;6.70;100123.00;;;;335562;29;82657;-96
2023/02/21 02:37:36;;;;;;;;;;;6.00;99.90;6.60;100126.00;;;;331286;29;89979;-95
2023/02/21 02:38:08;;;;;;;;;;;6.00;99.90;6.50;100131.00;;;;331815;29;83468;-96
2023/02/21 02:38:58;;;;;;;;;;;6.00;99.90;6.60;100112.00;;;;332530;29;88223;-95
2023/02/21 02:39:47;;;;;;;;;;;6.00;99.90;6.60;100130.00;;;;333812;29;82600;-94
2023/02/21 02:40:20;;;;;;;;;;;6.00;99.90;6.60;100120.00;;;;333450;29;87982;-95
2023/02/21 02:40:49;;;;;;;;;;;6.00;99.90;6.70;100126.00;;;;335213;29;83726;-95
2023/02/21 02:41:38;;;;;;;;;;;6.00;99.90;6.70;100120.00;;;;333344;29;89150;-94
2023/02/21 02:41:59;;;;;;;;;;;6.00;99.90;6.70;100119.00;;;;330023;29;83543;-95
2023/02/21 02:42:29;;;;;;;;;;;6.10;99.90;6.70;100118.00;;;;333346;29;91231;-95
2023/02/21 02:43:24;;;;;;;;;;;6.10;99.90;6.80;100118.00;;;;335119;29;82797;-94
2023/02/21 02:43:55;;;;;;;;;;;6.10;99.90;6.90;100120.00;;;;330820;29;88810;-94
2023/02/21 02:44:38;;;;;;;;;;;6.10;99.90;6.80;100122.00;;;;332473;29;82577;-95
2023/02/21 02:45:10;;;;;;;;;;;6.10;99.90;6.50;100126.00;;;;332241;29;89002;-95
2023/02/21 02:46:04;;;;;;;;;;;6.10;99.90;6.60;100119.00;;;;331481;29;83450;-95
2023/02/21 02:46:30;;;;;;;;;;;6.10;99.90;6.60;100126.00;;;;333108;29;89435;-95
2023/02/21 02:46:57;;;;;;;;;;;6.10;99.90;6.50;100121.00;;;;334286;29;82686;-94
2023/02/21 02:47:28;;;;;;;;;;;6.10;99.90;6.60;100124.00;;;;331594;29;89499;-94
2023/02/21 02:48:01;;;;;;;;;;;6.10;99.90;6.60;100129.00;;;;334374;29;82708;-95
2023/02/21 02:48:45;;;;;;;;;;;6.00;99.90;6.60;100126.00;;;;333886;29;89180;-95
2023/02/21 02:49:25;;;;;;;;;;;6.10;99.90;6.70;100115.00;;;;335749;29;82684;-94
2023/02/21 02:49:40;;;;;;;;;;;6.10;99.90;6.60;100116.00;;;;334044;29;91314;-94
2023/02/21 02:49:51;;;;;;;;;;;6.10;99.90;6.60;100124.00;;;;333332;29;82508;-95
2023/02/21 02:50:05;;;;;;;;;;;6.10;99.90;6.60;100122.00;;;;334046;29;89756;-94
2023/02/21 02:50:17;;;;;;;;;;;6.10;99.90;6.70;100114.00;;;;334515;29;82599;-95
2023/02/21 02:50:30;;;;;;;;;;;6.10;99.90;6.70;100115.00;;;;334243;29;90313;-96
2023/02/21 02:50:43;;;;;;;;;;;6.10;99.90;6.70;100111.00;;;;336250;28;82213;-95
2023/02/21 02:50:55;;;;;;;;;;;6.10;99.90;6.70;100116.00;;;;336724;29;90664;-96
2023/02/21 02:51:11;;;;;;;;;;;6.10;99.90;6.60;100113.00;;;;338391;28;82541;-95
2023/02/21 02:51:23;;;;;;;;;;;6.10;99.90;6.50;100119.00;;;;336732;28;90812;-94
2023/02/21 02:51:35;;;;;;;;;;;6.10;99.90;6.50;100108.00;;;;334480;29;83468;-94
2023/02/21 02:51:47;;;;;;;;;;;6.10;99.90;6.60;100113.00;;;;336060;28;91037;-94
2023/02/21 02:52:03;;;;;;;;;;;6.10;99.90;6.60;100110.00;;;;336287;28;82565;-95
2023/02/21 02:52:15;;;;;;;;;;;6.10;99.90;6.70;100114.00;;;;333604;29;91465;-94
2023/02/21 02:52:26;;;;;;;;;;;6.10;99.90;6.70;100117.00;;;;335245;29;83634;-95
2023/02/21 02:52:48;;;;;;;;;;;6.10;99.90;6.80;100118.00;;;;336361;28;91872;-94
2023/02/21 02:53:01;;;;;;;;;;;6.10;99.90;6.80;100118.00;;;;333861;29;83660;-95
2023/02/21 02:53:16;;;;;;;;;;;6.10;99.90;6.70;100119.00;;;;332354;29;90031;-95
2023/02/21 02:53:28;;;;;;;;;;;6.10;99.90;6.80;100115.00;;;;336667;28;82460;-95
2023/02/21 02:53:40;;;;;;;;;;;6.10;99.90;6.80;100118.00;;;;336184;28;91834;-95
2023/02/21 02:53:52;;;;;;;;;;;6.10;99.90;6.80;100111.00;;;;334094;29;82486;-95
2023/02/21 02:54:04;;;;;;;;;;;6.10;99.90;6.70;100114.00;;;;334752;29;92201;-94
2023/02/21 02:54:16;;;;;;;;;;;6.10;99.90;6.70;100106.00;;;;331463;29;82488;-95
2023/02/21 02:54:27;;;;;;;;;;;6.10;99.90;6.70;100114.00;;;;334778;29;91191;-95
2023/02/21 02:54:40;;;;;;;;;;;6.10;99.90;6.60;100117.00;;;;336633;28;83257;-95
2023/02/21 02:55:03;;;;;;;;;;;6.10;99.90;6.60;100119.00;;;;333241;29;90581;-94
2023/02/21 02:55:37;;;;;;;;;;;6.10;99.90;6.60;100117.00;;;;332607;29;83290;-95
2023/02/21 02:55:55;;;;;;;;;;;6.10;99.90;6.60;100116.00;;;;333499;29;90471;-95
2023/02/21 02:56:12;;;;;;;;;;;6.10;99.90;6.70;100114.00;;;;333919;29;82563;-95
2023/02/21 02:56:27;;;;;;;;;;;6.10;99.90;6.60;100118.00;;;;337209;28;91666;-95
2023/02/21 02:56:39;;;;;;;;;;;6.10;99.90;6.60;100114.00;;;;340497;28;83341;-95
2023/02/21 02:56:51;;;;;;;;;;;6.10;99.90;6.50;100119.00;;;;340184;28;91294;-94
2023/02/21 02:57:09;;;;;;;;;;;6.00;99.90;6.50;100109.00;;;;339106;28;83410;-95
2023/02/21 02:57:21;;;;;;;;;;;6.00;99.90;6.40;100110.00;;;;338590;28;90439;-95
2023/02/21 02:57:39;;;;;;;;;;;6.00;99.90;6.40;100107.00;;;;336609;28;83338;-96
2023/02/21 02:57:51;;;;;;;;;;;6.00;99.90;6.40;100108.00;;;;338841;28;90912;-94
2023/02/21 02:58:03;;;;;;;;;;;6.00;99.90;6.50;100115.00;;;;339215;28;82634;-95
2023/02/21 02:58:15;;;;;;;;;;;6.00;99.90;6.50;100108.00;;;;338720;28;91700;-95
2023/02/21 02:58:29;;;;;;;;;;;6.00;99.90;6.40;100116.00;;;;337823;28;82602;-95
2023/02/21 02:58:48;;;;;;;;;;;6.00;99.90;6.40;100115.00;;;;337447;28;90862;-94
2023/02/21 02:59:06;;;;;;;;;;;6.00;99.90;6.50;100114.00;;;;339263;28;82611;-95
2023/02/21 02:59:24;;;;;;;;;;;6.00;99.90;6.40;100122.00;;;;339992;28;92747;-94
2023/02/21 02:59:37;;;;;;;;;;;6.00;99.90;6.40;100117.00;;;;341896;28;83505;-94
2023/02/21 02:59:48;;;;;;;;;;;6.00;99.90;6.40;100112.00;;;;338571;28;91636;-96
2023/02/21 03:00:00;;;;;;;;;;;6.00;99.90;6.40;100115.00;;;;337860;28;83459;-95
2023/02/21 03:00:13;;;;;;;;;;;6.00;99.90;6.40;100108.00;;;;338836;28;90298;-94
2023/02/21 03:00:25;;;;;;;;;;;6.00;99.90;6.40;100111.00;;;;340435;28;83500;-95
2023/02/21 03:00:39;;;;;;;;;;;6.00;99.90;6.40;100101.00;;;;338910;28;90142;-95
2023/02/21 03:01:15;;;;;;;;;;;6.00;99.90;6.40;100108.00;;;;337983;28;82475;-95
2023/02/21 03:01:39;;;;;;;;;;;6.00;99.90;6.40;100116.00;;;;337246;28;90708;-95
2023/02/21 03:01:58;;;;;;;;;;;6.00;99.90;6.40;100113.00;;;;343361;28;83473;-95
2023/02/21 03:02:27;;;;;;;;;;;5.90;99.90;6.50;100116.00;;;;341399;28;90737;-95
2023/02/21 03:03:30;;;;;;;;;;;6.00;99.90;6.40;100117.00;;;;340504;28;83579;-94
2023/02/21 03:03:51;;;;;;;;;;;6.00;99.90;6.40;100118.00;;;;340167;28;88741;-95
2023/02/21 03:04:26;;;;;;;;;;;5.90;99.90;6.30;100104.00;;;;341895;28;83184;-95
2023/02/21 03:04:58;;;;;;;;;;;5.90;99.90;6.40;100109.00;;;;339308;28;91331;-95
2023/02/21 03:05:26;;;;;;;;;;;5.90;99.90;6.50;100115.00;;;;339127;28;83541;-95
2023/02/21 03:05:38;;;;;;;;;;;6.00;99.90;6.60;100107.00;;;;338650;28;91504;-95
2023/02/21 03:05:56;;;;;;;;;;;5.90;99.90;6.50;100109.00;;;;339263;28;83504;-95
2023/02/21 03:06:38;;;;;;;;;;;5.90;99.90;6.60;100111.00;;;;338501;28;90369;-94
2023/02/21 03:06:56;;;;;;;;;;;5.90;99.90;6.50;100101.00;;;;340384;28;82559;-95
2023/02/21 03:07:20;;;;;;;;;;;6.00;99.90;6.50;100111.00;;;;337334;28;91708;-94
2023/02/21 03:07:47;;;;;;;;;;;6.00;99.90;6.50;100116.00;;;;340728;28;82581;-94
2023/02/21 03:08:03;;;;;;;;;;;6.00;99.90;6.60;100106.00;;;;340028;28;89882;-94
2023/02/21 03:08:17;;;;;;;;;;;6.00;99.90;6.60;100110.00;;;;339191;28;83536;-95
2023/02/21 03:08:49;;;;;;;;;;;6.00;99.90;6.60;100109.00;;;;341418;28;90923;-94
2023/02/21 03:09:10;;;;;;;;;;;6.00;99.90;6.60;100105.00;;;;342023;28;82575;-95
2023/02/21 03:10:03;;;;;;;;;;;6.00;99.90;6.40;100102.00;;;;338699;28;91713;-95
2023/02/21 03:10:33;;;;;;;;;;;6.00;99.90;6.50;100107.00;;;;336510;28;83417;-94
2023/02/21 03:10:55;;;;;;;;;;;6.00;99.90;6.50;100109.00;;;;338645;28;90356;-94
2023/02/21 03:11:22;;;;;;;;;;;6.00;99.90;6.60;100105.00;;;;339171;28;83276;-95
2023/02/21 03:11:34;;;;;;;;;;;6.00;99.90;6.60;100104.00;;;;337369;28;92168;-96
2023/02/21 03:12:07;;;;;;;;;;;6.00;99.90;6.70;100107.00;;;;337816;28;82744;-95
2023/02/21 03:12:36;;;;;;;;;;;6.00;99.90;6.80;100104.00;;;;338710;28;90050;-94
2023/02/21 03:12:54;;;;;;;;;;;6.00;99.90;6.70;100098.00;;;;336484;28;82743;-95
2023/02/21 03:13:20;;;;;;;;;;;6.00;99.90;6.70;100105.00;;;;338757;28;92099;-96
2023/02/21 03:13:42;;;;;;;;;;;6.00;99.90;6.60;100094.00;;;;339110;28;82490;-95
2023/02/21 03:14:12;;;;;;;;;;;6.00;99.90;6.50;100102.00;;;;337546;28;90758;-94
2023/02/21 03:14:25;;;;;;;;;;;6.00;99.90;6.40;100099.00;;;;337863;28;83501;-95
2023/02/21 03:14:42;;;;;;;;;;;6.00;99.90;6.40;100097.00;;;;338633;28;91251;-95
2023/02/21 03:15:03;;;;;;;;;;;6.00;99.90;6.50;100100.00;;;;337968;28;82410;-94
2023/02/21 03:15:20;;;;;;;;;;;6.00;99.90;6.40;100101.00;;;;338789;28;91679;-95
2023/02/21 03:15:39;;;;;;;;;;;6.00;99.90;6.40;100102.00;;;;337983;28;82358;-95
2023/02/21 03:15:54;;;;;;;;;;;6.00;99.90;6.50;100100.00;;;;337617;28;90596;-95
2023/02/21 03:16:24;;;;;;;;;;;6.00;99.90;6.60;100096.00;;;;340724;28;83480;-94
2023/02/21 03:16:39;;;;;;;;;;;6.00;99.90;6.60;100097.00;;;;337711;28;91910;-94
2023/02/21 03:16:54;;;;;;;;;;;6.00;99.90;6.60;100100.00;;;;338255;28;82543;-95
2023/02/21 03:17:08;;;;;;;;;;;6.00;99.90;6.60;100106.00;;;;339135;28;90187;-96
2023/02/21 03:17:20;;;;;;;;;;;6.00;99.90;6.50;100094.00;;;;336785;28;82197;-94
2023/02/21 03:17:35;;;;;;;;;;;6.00;99.90;6.60;100099.00;;;;338088;28;91423;-94
2023/02/21 03:17:58;;;;;;;;;;;6.00;99.90;6.60;100109.00;;;;338182;28;82610;-95
2023/02/21 03:18:15;;;;;;;;;;;6.00;99.90;6.70;100104.00;;;;338038;28;91525;-95
2023/02/21 03:18:40;;;;;;;;;;;6.00;99.90;6.70;100099.00;;;;338398;28;82644;-96
2023/02/21 03:19:06;;;;;;;;;;;6.00;99.90;6.90;100105.00;;;;339608;28;90367;-94
2023/02/21 03:19:22;;;;;;;;;;;6.00;99.90;6.70;100102.00;;;;341061;28;82475;-95
2023/02/21 03:19:36;;;;;;;;;;;6.00;99.90;6.80;100094.00;;;;340421;28;91868;-94
2023/02/21 03:19:48;;;;;;;;;;;6.10;99.90;6.80;100100.00;;;;339611;28;82681;-94
2023/02/21 03:20:00;;;;;;;;;;;6.10;99.90;6.80;100104.00;;;;339281;28;89173;-95
2023/02/21 03:20:12;;;;;;;;;;;6.10;99.90;6.80;100093.00;;;;336005;29;83355;-95
2023/02/21 03:20:24;;;;;;;;;;;6.10;99.90;6.80;100094.00;;;;338004;28;90358;-95
2023/02/21 03:20:36;;;;;;;;;;;6.10;99.90;6.80;100099.00;;;;339927;28;82524;-95
2023/02/21 03:20:51;;;;;;;;;;;6.10;99.90;6.70;100096.00;;;;336617;28;91605;-94
2023/02/21 03:21:04;;;;;;;;;;;6.10;99.90;6.70;100099.00;;;;337196;28;82573;-96
2023/02/21 03:21:21;;;;;;;;;;;6.10;99.90;6.60;100098.00;;;;338124;28;91149;-95
2023/02/21 03:21:51;;;;;;;;;;;6.10;99.90;6.60;100090.00;;;;338410;28;82585;-95
2023/02/21 03:22:11;;;;;;;;;;;6.10;99.90;6.50;100111.00;;;;340814;28;90616;-95
2023/02/21 03:22:25;;;;;;;;;;;6.10;99.90;6.50;100099.00;;;;338386;28;83592;-95
2023/02/21 03:22:37;;;;;;;;;;;6.10;99.90;6.60;100093.00;;;;336777;28;90501;-95
2023/02/21 03:22:49;;;;;;;;;;;6.00;99.90;6.60;100099.00;;;;341190;28;82561;-95
2023/02/21 03:23:01;;;;;;;;;;;6.10;99.90;6.70;100095.00;;;;339462;28;90662;-95
2023/02/21 03:23:13;;;;;;;;;;;6.10;99.90;6.60;100098.00;;;;339819;28;83572;-95
2023/02/21 03:23:27;;;;;;;;;;;6.10;99.90;6.60;100094.00;;;;339239;28;91490;-95
2023/02/21 03:23:38;;;;;;;;;;;6.10;99.90;6.60;100100.00;;;;338092;28;82461;-95
2023/02/21 03:23:51;;;;;;;;;;;6.10;99.90;6.70;100104.00;;;;341568;28;90919;-96
2023/02/21 03:24:03;;;;;;;;;;;6.10;99.90;6.70;100097.00;;;;340664;28;82443;-95
2023/02/21 03:24:16;;;;;;;;;;;6.10;99.90;6.70;100095.00;;;;337475;28;91509;-96
2023/02/21 03:24:28;;;;;;;;;;;6.10;99.90;6.80;100094.00;;;;339210;28;83306;-95
2023/02/21 03:24:41;;;;;;;;;;;6.10;99.90;6.80;100098.00;;;;339124;28;90432;-96
2023/02/21 03:24:52;;;;;;;;;;;6.10;99.90;6.80;100094.00;;;;336918;28;83270;-95
2023/02/21 03:25:04;;;;;;;;;;;6.10;99.90;6.70;100103.00;;;;337766;28;90730;-96
2023/02/21 03:25:17;;;;;;;;;;;6.10;99.90;6.60;100101.00;;;;338210;28;82489;-95
2023/02/21 03:25:28;;;;;;;;;;;6.10;99.90;6.60;100094.00;;;;337698;28;91664;-95
2023/02/21 03:25:41;;;;;;;;;;;6.00;99.90;6.60;100092.00;;;;339522;28;83399;-96
2023/02/21 03:25:53;;;;;;;;;;;6.10;99.90;6.50;100105.00;;;;337805;28;90997;-96
2023/02/21 03:26:06;;;;;;;;;;;6.00;99.90;6.50;100102.00;;;;339533;28;83371;-95
2023/02/21 03:26:18;;;;;;;;;;;6.00;99.90;6.50;100103.00;;;;339105;28;90684;-95
2023/02/21 03:26:31;;;;;;;;;;;6.00;99.90;6.50;100110.00;;;;338070;28;83462;-96
2023/02/21 03:26:44;;;;;;;;;;;6.00;99.90;6.50;100099.00;;;;339031;28;90870;-95
2023/02/21 03:26:58;;;;;;;;;;;6.00;99.90;6.50;100097.00;;;;339359;28;82500;-95
2023/02/21 03:27:10;;;;;;;;;;;6.00;99.90;6.60;100094.00;;;;337743;28;91953;-94
2023/02/21 03:27:22;;;;;;;;;;;6.00;99.90;6.50;100096.00;;;;342151;28;83421;-95
2023/02/21 03:27:34;;;;;;;;;;;6.00;99.90;6.50;100099.00;;;;340260;28;92795;-94
2023/02/21 03:27:46;;;;;;;;;;;6.00;99.90;6.40;100097.00;;;;339415;28;82342;-95
2023/02/21 03:27:57;;;;;;;;;;;6.00;99.90;6.40;100099.00;;;;339042;28;91487;-94
2023/02/21 03:28:09;;;;;;;;;;;6.00;99.90;6.40;100097.00;;;;338201;28;82413;-94
2023/02/21 03:28:21;;;;;;;;;;;6.00;99.90;6.40;100098.00;;;;338987;28;90279;-94
2023/02/21 03:28:33;;;;;;;;;;;6.00;99.90;6.40;100094.00;;;;339365;28;83504;-95
2023/02/21 03:28:45;;;;;;;;;;;5.90;99.90;6.40;100095.00;;;;335029;29;90170;-95
2023/02/21 03:28:57;;;;;;;;;;;5.90;99.90;6.50;100099.00;;;;336842;28;83138;-96
2023/02/21 03:29:09;;;;;;;;;;;5.90;99.90;6.40;100095.00;;;;340321;28;91547;-95
2023/02/21 03:29:20;;;;;;;;;;;5.90;99.90;6.40;100099.00;;;;340488;28;83814;-95
2023/02/21 03:29:33;;;;;;;;;;;5.90;99.90;6.40;100103.00;;;;337781;28;89859;-94
2023/02/21 03:29:45;;;;;;;;;;;5.90;99.90;6.30;100104.00;;;;336732;28;82513;-96
2023/02/21 03:29:58;;;;;;;;;;;5.90;99.90;6.30;100106.00;;;;339168;28;90297;-95
2023/02/21 03:30:10;;;;;;;;;;;5.90;99.90;6.40;100105.00;;;;338183;28;82531;-95
2023/02/21 03:30:22;;;;;;;;;;;5.90;99.90;6.30;100100.00;;;;337653;28;90463;-96
2023/02/21 03:30:34;;;;;;;;;;;5.90;99.90;6.40;100098.00;;;;342249;28;83430;-95
2023/02/21 03:30:48;;;;;;;;;;;5.90;99.90;6.30;100098.00;;;;338901;28;89529;-95
2023/02/21 03:30:59;;;;;;;;;;;5.90;99.90;6.20;100106.00;;;;340839;28;82609;-95
2023/02/21 03:31:12;;;;;;;;;;;5.90;99.90;6.30;100107.00;;;;340461;28;90225;-94
2023/02/21 03:31:30;;;;;;;;;;;5.90;99.90;6.40;100092.00;;;;338280;28;83450;-95
2023/02/21 03:31:51;;;;;;;;;;;5.90;99.90;6.30;100098.00;;;;338949;28;90800;-95
2023/02/21 03:32:51;;;;;;;;;;;5.90;99.90;6.50;100106.00;;;;342219;28;83351;-95
2023/02/21 03:33:03;;;;;;;;;;;5.80;99.90;6.50;100096.00;;;;341406;28;91612;-95
2023/02/21 03:33:14;;;;;;;;;;;5.90;99.90;6.50;100094.00;;;;339523;28;83466;-95
2023/02/21 03:33:26;;;;;;;;;;;5.90;99.90;6.60;100104.00;;;;339004;28;91506;-94
2023/02/21 03:33:40;;;;;;;;;;;5.90;99.90;6.50;100103.00;;;;338093;28;82334;-94
2023/02/21 03:33:52;;;;;;;;;;;5.90;99.90;6.50;100097.00;;;;338980;28;91663;-96
2023/02/21 03:34:04;;;;;;;;;;;5.90;99.90;6.50;100097.00;;;;340800;28;83355;-94
2023/02/21 03:34:15;;;;;;;;;;;5.90;99.90;6.50;100101.00;;;;338963;28;91630;-95
2023/02/21 03:34:27;;;;;;;;;;;5.90;99.90;6.50;100096.00;;;;340688;28;83518;-96
2023/02/21 03:34:40;;;;;;;;;;;5.90;99.90;6.40;100096.00;;;;338875;28;90727;-95
2023/02/21 03:34:51;;;;;;;;;;;5.90;99.90;6.30;100108.00;;;;336801;28;82516;-95
2023/02/21 03:35:03;;;;;;;;;;;5.80;99.90;6.30;100089.00;;;;338980;28;91310;-95
2023/02/21 03:35:15;;;;;;;;;;;5.80;99.90;6.40;100093.00;;;;337991;28;82428;-96
2023/02/21 03:35:30;;;;;;;;;;;5.90;99.90;6.50;100107.00;;;;340147;28;89643;-95
2023/02/21 03:35:42;;;;;;;;;;;5.90;99.90;6.50;100096.00;;;;339466;28;82493;-96
2023/02/21 03:35:54;;;;;;;;;;;5.90;99.90;6.60;100095.00;;;;340611;28;91591;-95
2023/02/21 03:36:06;;;;;;;;;;;5.90;99.90;6.60;100095.00;;;;339908;28;82500;-95
2023/02/21 03:36:17;;;;;;;;;;;5.90;99.90;6.60;100093.00;;;;340773;28;92504;-95
2023/02/21 03:36:30;;;;;;;;;;;5.90;99.90;6.60;100094.00;;;;339532;28;83617;-95
2023/02/21 03:36:42;;;;;;;;;;;5.90;99.90;6.60;100098.00;;;;339502;28;90220;-95
2023/02/21 03:36:53;;;;;;;;;;;5.90;99.90;6.60;100096.00;;;;340044;28;82510;-94
2023/02/21 03:37:06;;;;;;;;;;;5.90;99.90;6.70;100102.00;;;;340748;28;90482;-95
2023/02/21 03:37:30;;;;;;;;;;;5.90;99.90;6.60;100092.00;;;;339887;28;82507;-95
2023/02/21 03:37:51;;;;;;;;;;;5.90;99.90;6.40;100096.00;;;;339480;28;91657;-95
2023/02/21 03:38:03;;;;;;;;;;;5.90;99.90;6.40;100107.00;;;;339972;28;83414;-95
2023/02/21 03:38:15;;;;;;;;;;;5.90;99.90;6.40;100098.00;;;;337901;28;89525;-94
2023/02/21 03:38:28;;;;;;;;;;;5.90;99.90;6.40;100091.00;;;;339961;28;82451;-95
2023/02/21 03:38:39;;;;;;;;;;;5.90;99.90;6.30;100101.00;;;;339539;28;91405;-94
2023/02/21 03:38:51;;;;;;;;;;;5.90;99.90;6.30;100102.00;;;;339570;28;83484;-95
2023/02/21 03:39:03;;;;;;;;;;;5.90;99.90;6.30;100100.00;;;;339140;28;90655;-94
2023/02/21 03:39:16;;;;;;;;;;;5.90;99.90;6.30;100099.00;;;;341203;28;83455;-94
2023/02/21 03:39:28;;;;;;;;;;;5.80;99.90;6.30;100100.00;;;;339298;28;90174;-95
2023/02/21 03:39:40;;;;;;;;;;;5.90;99.90;6.30;100095.00;;;;339712;28;82458;-94
2023/02/21 03:39:51;;;;;;;;;;;5.80;99.90;6.20;100093.00;;;;339139;28;91552;-94
2023/02/21 03:40:30;;;;;;;;;;;5.80;99.90;6.30;100102.00;;;;339571;28;83428;-94
2023/02/21 03:40:42;;;;;;;;;;;5.80;99.90;6.30;100091.00;;;;341926;28;90271;-95
2023/02/21 03:40:54;;;;;;;;;;;5.80;99.90;6.30;100090.00;;;;342298;28;82500;-94
2023/02/21 03:41:06;;;;;;;;;;;5.80;99.90;6.30;100094.00;;;;340391;28;91354;-96
2023/02/21 03:41:17;;;;;;;;;;;5.80;99.90;6.30;100105.00;;;;339554;28;82441;-96
2023/02/21 03:41:29;;;;;;;;;;;5.80;99.90;6.30;100095.00;;;;342047;28;90522;-95
2023/02/21 03:41:41;;;;;;;;;;;5.80;99.90;6.30;100086.00;;;;342196;28;83448;-96
2023/02/21 03:41:53;;;;;;;;;;;5.80;99.90;6.30;100094.00;;;;341960;28;90600;-95
2023/02/21 03:42:05;;;;;;;;;;;5.80;99.90;6.20;100094.00;;;;342361;28;82637;-95
2023/02/21 03:42:17;;;;;;;;;;;5.80;99.90;6.20;100096.00;;;;343022;28;90871;-95
2023/02/21 03:42:29;;;;;;;;;;;5.80;99.90;6.20;100089.00;;;;342219;28;83479;-95
2023/02/21 03:42:41;;;;;;;;;;;5.80;99.90;6.30;100092.00;;;;343235;28;92049;-96
2023/02/21 03:42:54;;;;;;;;;;;5.80;99.90;6.30;100092.00;;;;343407;28;82554;-94
2023/02/21 03:43:06;;;;;;;;;;;5.80;99.90;6.40;100090.00;;;;340272;28;91957;-95
2023/02/21 03:43:18;;;;;;;;;;;5.80;99.90;6.40;100089.00;;;;343592;28;82496;-94
2023/02/21 03:43:29;;;;;;;;;;;5.80;99.90;6.30;100094.00;;;;341575;28;90758;-95
2023/02/21 03:43:41;;;;;;;;;;;5.80;99.90;6.20;100091.00;;;;342024;28;82543;-95
2023/02/21 03:43:53;;;;;;;;;;;5.80;99.90;6.20;100087.00;;;;344552;28;90838;-96
2023/02/21 03:44:05;;;;;;;;;;;5.80;99.90;6.30;100090.00;;;;340836;28;82552;-95
2023/02/21 03:44:16;;;;;;;;;;;5.80;99.90;6.40;100089.00;;;;340472;28;91418;-95
2023/02/21 03:44:28;;;;;;;;;;;5.80;99.90;6.40;100085.00;;;;342071;28;82585;-95
2023/02/21 03:44:40;;;;;;;;;;;5.80;99.90;6.40;100093.00;;;;343135;28;91368;-94
2023/02/21 03:44:52;;;;;;;;;;;5.80;99.90;6.40;100089.00;;;;342124;28;83447;-95
2023/02/21 03:45:04;;;;;;;;;;;5.80;99.90;6.50;100077.00;;;;342972;28;91919;-95
2023/02/21 03:45:16;;;;;;;;;;;5.80;99.90;6.50;100091.00;;;;342222;28;82512;-95
2023/02/21 03:45:28;;;;;;;;;;;5.80;99.90;6.40;100084.00;;;;343000;28;91875;-95
2023/02/21 03:45:39;;;;;;;;;;;5.80;99.90;6.30;100081.00;;;;344862;28;83310;-95
2023/02/21 03:45:51;;;;;;;;;;;5.80;99.90;6.30;100087.00;;;;341463;28;91518;-95
2023/02/21 03:46:03;;;;;;;;;;;5.80;99.90;6.30;100088.00;;;;341898;28;83180;-95
2023/02/21 03:46:15;;;;;;;;;;;5.80;99.90;6.30;100086.00;;;;339152;28;90853;-94
2023/02/21 03:46:27;;;;;;;;;;;5.80;99.90;6.40;100094.00;;;;342148;28;83403;-95
2023/02/21 03:46:38;;;;;;;;;;;5.80;99.90;6.50;100088.00;;;;343121;28;91712;-94
2023/02/21 03:46:52;;;;;;;;;;;5.80;99.90;6.40;100086.00;;;;344966;28;82491;-96
2023/02/21 03:47:04;;;;;;;;;;;5.80;99.90;6.40;100084.00;;;;342944;28;91565;-95
2023/02/21 03:47:16;;;;;;;;;;;5.80;99.90;6.40;100078.00;;;;343658;28;82503;-95
2023/02/21 03:47:28;;;;;;;;;;;5.80;99.90;6.50;100090.00;;;;343113;28;90607;-94
2023/02/21 03:47:39;;;;;;;;;;;5.80;99.90;6.60;100083.00;;;;343329;28;82589;-94
2023/02/21 03:47:51;;;;;;;;;;;5.80;99.90;6.60;100088.00;;;;340537;28;90345;-95
2023/02/21 03:48:03;;;;;;;;;;;5.80;99.90;6.60;100088.00;;;;340873;28;83378;-95
2023/02/21 03:48:16;;;;;;;;;;;5.80;99.90;6.60;100084.00;;;;344480;28;90180;-95
2023/02/21 03:48:42;;;;;;;;;;;5.90;99.90;6.50;100088.00;;;;342207;28;82521;-94
2023/02/21 03:48:54;;;;;;;;;;;5.90;99.90;6.60;100090.00;;;;341695;28;90519;-95
2023/02/21 03:49:05;;;;;;;;;;;5.90;99.90;6.60;100079.00;;;;341969;28;82543;-94
2023/02/21 03:49:17;;;;;;;;;;;5.90;99.90;6.60;100088.00;;;;344507;28;91196;-96
2023/02/21 03:49:29;;;;;;;;;;;5.90;99.90;6.60;100089.00;;;;342036;28;82565;-95
2023/02/21 03:49:41;;;;;;;;;;;5.90;99.90;6.50;100081.00;;;;342995;28;90301;-94
2023/02/21 03:49:52;;;;;;;;;;;5.90;99.90;6.50;100085.00;;;;343602;28;83254;-95
2023/02/21 03:50:06;;;;;;;;;;;5.90;99.90;6.40;100095.00;;;;339072;28;91955;-95
2023/02/21 03:50:17;;;;;;;;;;;5.90;99.90;6.40;100080.00;;;;342140;28;83448;-94
2023/02/21 03:50:29;;;;;;;;;;;5.90;99.90;6.30;100086.00;;;;341737;28;91080;-96
2023/02/21 03:50:41;;;;;;;;;;;5.90;99.90;6.40;100080.00;;;;343490;28;83339;-94
2023/02/21 03:50:53;;;;;;;;;;;5.90;99.90;6.40;100086.00;;;;344479;28;90644;-95
2023/02/21 03:51:05;;;;;;;;;;;5.90;99.90;6.40;100084.00;;;;342052;28;82506;-94
2023/02/21 03:51:16;;;;;;;;;;;5.90;99.90;6.40;100080.00;;;;342833;28;91188;-95
2023/02/21 03:51:28;;;;;;;;;;;5.90;99.90;6.40;100086.00;;;;341939;28;82550;-95
2023/02/21 03:51:40;;;;;;;;;;;5.90;99.90;6.50;100092.00;;;;340370;28;90594;-95
2023/02/21 03:51:52;;;;;;;;;;;5.90;99.90;6.40;100080.00;;;;342227;28;83372;-95
2023/02/21 03:52:04;;;;;;;;;;;5.90;99.90;6.40;100087.00;;;;343177;28;91357;-95
2023/02/21 03:52:15;;;;;;;;;;;5.90;99.90;6.30;100088.00;;;;343657;28;82475;-95